sensor_id;sensor_type;location;lat;lon;timestamp;P1;durP1;ratioP1;P2;durP2;ratioP2
7563;SDS011;3823;53.586;10.040;2023-05-16T04:02:45;7.60;;;2.10;;
7563;SDS011;3823;53.586;10.040;2023-05-16T04:05:11;10.15;;;2.17;;
7563;SDS011;3823;53.586;10.040;2023-05-16T04:07:37;11.02;;;2.10;;
7563;SDS011;3823;53.586;10.040;2023-05-16T04:10:03;9.00;;;2.00;;
7563;SDS011;3823;53.586;10.040;2023-05-16T04:14:58;8.65;;;1.95;;
7563;SDS011;3823;53.586;10.040;2023-05-16T04:17:24;10.57;;;1.98;;
7563;SDS011;3823;53.586;10.040;2023-05-16T04:19:50;8.73;;;2.60;;
7563;SDS011;3823;53.586;10.040;2023-05-16T04:22:16;7.80;;;1.88;;
7563;SDS011;3823;53.586;10.040;2023-05-16T04:24:41;6.82;;;2.15;;
7563;SDS011;3823;53.586;10.040;2023-05-16T04:27:07;7.40;;;2.15;;
7563;SDS011;3823;53.586;10.040;2023-05-16T04:29:33;8.75;;;2.95;;
7563;SDS011;3823;53.586;10.040;2023-05-16T04:31:59;9.88;;;1.90;;
7563;SDS011;3823;53.586;10.040;2023-05-16T04:34:24;11.52;;;2.25;;
7563;SDS011;3823;53.586;10.040;2023-05-16T04:36:52;4.47;;;1.60;;
7563;SDS011;3823;53.586;10.040;2023-05-16T04:39:18;6.80;;;2.17;;
7563;SDS011;3823;53.586;10.040;2023-05-16T04:41:43;9.10;;;2.30;;
7563;SDS011;3823;53.586;10.040;2023-05-16T04:44:09;12.95;;;2.28;;
7563;SDS011;3823;53.586;10.040;2023-05-16T04:46:35;7.65;;;1.70;;
7563;SDS011;3823;53.586;10.040;2023-05-16T04:49:01;12.65;;;2.35;;
7563;SDS011;3823;53.586;10.040;2023-05-16T04:51:27;9.35;;;2.05;;
7563;SDS011;3823;53.586;10.040;2023-05-16T04:53:52;8.88;;;1.67;;
7563;SDS011;3823;53.586;10.040;2023-05-16T04:56:19;11.15;;;2.42;;
7563;SDS011;3823;53.586;10.040;2023-05-16T04:58:44;9.07;;;2.47;;
7563;SDS011;3823;53.586;10.040;2023-05-16T05:01:10;8.40;;;1.90;;
7563;SDS011;3823;53.586;10.040;2023-05-16T05:03:36;10.77;;;2.83;;
7563;SDS011;3823;53.586;10.040;2023-05-16T05:06:01;16.13;;;2.63;;
7563;SDS011;3823;53.586;10.040;2023-05-16T05:08:27;5.63;;;1.75;;
7563;SDS011;3823;53.586;10.040;2023-05-16T05:10:54;11.10;;;1.88;;
7563;SDS011;3823;53.586;10.040;2023-05-16T05:13:20;9.30;;;1.80;;
7563;SDS011;3823;53.586;10.040;2023-05-16T05:15:46;8.60;;;1.80;;
7563;SDS011;3823;53.586;10.040;2023-05-16T05:18:11;3.80;;;1.30;;
7563;SDS011;3823;53.586;10.040;2023-05-16T05:20:37;9.60;;;2.25;;
7563;SDS011;3823;53.586;10.040;2023-05-16T05:23:02;6.60;;;1.83;;
7563;SDS011;3823;53.586;10.040;2023-05-16T05:25:28;7.75;;;3.28;;
7563;SDS011;3823;53.586;10.040;2023-05-16T05:27:54;6.53;;;1.02;;
7563;SDS011;3823;53.586;10.040;2023-05-16T05:30:19;7.20;;;2.10;;
7563;SDS011;3823;53.586;10.040;2023-05-16T05:32:45;9.00;;;3.63;;
7563;SDS011;3823;53.586;10.040;2023-05-16T05:35:10;13.45;;;2.70;;
7563;SDS011;3823;53.586;10.040;2023-05-16T05:37:36;9.70;;;1.80;;
7563;SDS011;3823;53.586;10.040;2023-05-16T05:40:01;21.10;;;2.13;;
7563;SDS011;3823;53.586;10.040;2023-05-16T05:42:28;10.15;;;1.58;;
7563;SDS011;3823;53.586;10.040;2023-05-16T05:44:53;6.80;;;2.35;;
7563;SDS011;3823;53.586;10.040;2023-05-16T05:47:19;8.40;;;2.03;;
7563;SDS011;3823;53.586;10.040;2023-05-16T05:49:45;5.97;;;1.85;;
7563;SDS011;3823;53.586;10.040;2023-05-16T05:52:11;4.30;;;1.50;;
7563;SDS011;3823;53.586;10.040;2023-05-16T05:54:37;5.90;;;1.70;;
7563;SDS011;3823;53.586;10.040;2023-05-16T05:57:02;11.43;;;1.50;;
7563;SDS011;3823;53.586;10.040;2023-05-16T05:59:28;12.30;;;1.98;;
7563;SDS011;3823;53.586;10.040;2023-05-16T06:01:54;5.22;;;1.52;;
7563;SDS011;3823;53.586;10.040;2023-05-16T06:04:20;3.60;;;1.27;;
7563;SDS011;3823;53.586;10.040;2023-05-16T06:06:45;9.60;;;2.75;;
7563;SDS011;3823;53.586;10.040;2023-05-16T06:09:11;6.63;;;1.55;;
7563;SDS011;3823;53.586;10.040;2023-05-16T06:11:40;9.13;;;1.88;;
7563;SDS011;3823;53.586;10.040;2023-05-16T06:14:07;5.22;;;1.48;;
7563;SDS011;3823;53.586;10.040;2023-05-16T06:16:32;9.55;;;1.73;;
7563;SDS011;3823;53.586;10.040;2023-05-16T06:18:58;8.88;;;1.45;;
7563;SDS011;3823;53.586;10.040;2023-05-16T06:21:24;12.57;;;1.67;;
7563;SDS011;3823;53.586;10.040;2023-05-16T06:23:50;5.03;;;1.80;;
7563;SDS011;3823;53.586;10.040;2023-05-16T06:26:15;10.80;;;1.65;;
7563;SDS011;3823;53.586;10.040;2023-05-16T06:28:41;6.72;;;1.65;;
7563;SDS011;3823;53.586;10.040;2023-05-16T06:31:06;4.65;;;1.00;;
7563;SDS011;3823;53.586;10.040;2023-05-16T06:33:32;6.22;;;1.10;;
7563;SDS011;3823;53.586;10.040;2023-05-16T06:35:57;7.95;;;1.30;;
7563;SDS011;3823;53.586;10.040;2023-05-16T06:38:24;4.90;;;1.50;;
7563;SDS011;3823;53.586;10.040;2023-05-16T06:40:49;8.43;;;2.17;;
7563;SDS011;3823;53.586;10.040;2023-05-16T06:43:15;6.15;;;1.88;;
7563;SDS011;3823;53.586;10.040;2023-05-16T06:45:40;6.97;;;1.27;;
7563;SDS011;3823;53.586;10.040;2023-05-16T06:48:06;5.28;;;1.73;;
7563;SDS011;3823;53.586;10.040;2023-05-16T06:50:32;5.32;;;1.50;;
7563;SDS011;3823;53.586;10.040;2023-05-16T06:52:59;8.82;;;1.75;;
7563;SDS011;3823;53.586;10.040;2023-05-16T06:55:25;4.40;;;1.40;;
7563;SDS011;3823;53.586;10.040;2023-05-16T06:57:50;9.45;;;1.67;;
7563;SDS011;3823;53.586;10.040;2023-05-16T07:00:16;12.02;;;1.17;;
7563;SDS011;3823;53.586;10.040;2023-05-16T07:02:42;7.38;;;1.95;;
7563;SDS011;3823;53.586;10.040;2023-05-16T07:05:08;6.28;;;2.10;;
7563;SDS011;3823;53.586;10.040;2023-05-16T07:07:34;9.90;;;1.30;;
7563;SDS011;3823;53.586;10.040;2023-05-16T07:10:00;6.22;;;1.08;;
7563;SDS011;3823;53.586;10.040;2023-05-16T07:12:25;8.68;;;1.50;;
7563;SDS011;3823;53.586;10.040;2023-05-16T07:14:51;3.15;;;1.00;;
7563;SDS011;3823;53.586;10.040;2023-05-16T07:17:16;7.30;;;1.40;;
7563;SDS011;3823;53.586;10.040;2023-05-16T07:19:42;6.75;;;1.60;;
7563;SDS011;3823;53.586;10.040;2023-05-16T07:22:07;4.15;;;0.93;;
7563;SDS011;3823;53.586;10.040;2023-05-16T07:24:33;6.70;;;1.65;;
7563;SDS011;3823;53.586;10.040;2023-05-16T07:27:00;4.40;;;1.02;;
7563;SDS011;3823;53.586;10.040;2023-05-16T07:29:25;3.78;;;1.30;;
7563;SDS011;3823;53.586;10.040;2023-05-16T07:31:51;4.57;;;2.08;;
7563;SDS011;3823;53.586;10.040;2023-05-16T07:34:16;3.95;;;1.50;;
7563;SDS011;3823;53.586;10.040;2023-05-16T07:36:42;10.02;;;3.05;;
7563;SDS011;3823;53.586;10.040;2023-05-16T07:39:07;7.63;;;1.52;;
7563;SDS011;3823;53.586;10.040;2023-05-16T07:41:33;8.48;;;0.90;;
7563;SDS011;3823;53.586;10.040;2023-05-16T07:43:59;2.65;;;0.80;;
7563;SDS011;3823;53.586;10.040;2023-05-16T07:46:24;9.98;;;1.65;;
7563;SDS011;3823;53.586;10.040;2023-05-16T07:48:50;6.35;;;1.70;;
7563;SDS011;3823;53.586;10.040;2023-05-16T07:51:16;6.40;;;1.80;;
7563;SDS011;3823;53.586;10.040;2023-05-16T07:53:41;10.77;;;1.42;;
7563;SDS011;3823;53.586;10.040;2023-05-16T07:56:07;3.67;;;1.83;;
7563;SDS011;3823;53.586;10.040;2023-05-16T07:58:33;6.72;;;1.05;;
7563;SDS011;3823;53.586;10.040;2023-05-16T08:00:58;4.25;;;0.95;;
7563;SDS011;3823;53.586;10.040;2023-05-16T08:03:24;4.20;;;1.50;;
7563;SDS011;3823;53.586;10.040;2023-05-16T08:05:50;4.40;;;1.42;;
7563;SDS011;3823;53.586;10.040;2023-05-16T08:08:15;5.95;;;0.93;;
7563;SDS011;3823;53.586;10.040;2023-05-16T08:10:41;5.15;;;1.17;;
7563;SDS011;3823;53.586;10.040;2023-05-16T08:13:07;2.15;;;0.98;;
7563;SDS011;3823;53.586;10.040;2023-05-16T08:15:33;3.28;;;0.98;;
7563;SDS011;3823;53.586;10.040;2023-05-16T08:17:59;3.28;;;0.80;;
7563;SDS011;3823;53.586;10.040;2023-05-16T08:20:25;4.03;;;1.52;;
7563;SDS011;3823;53.586;10.040;2023-05-16T08:22:51;5.72;;;1.10;;
7563;SDS011;3823;53.586;10.040;2023-05-16T08:25:16;5.28;;;1.77;;
7563;SDS011;3823;53.586;10.040;2023-05-16T08:27:43;8.98;;;1.83;;
7563;SDS011;3823;53.586;10.040;2023-05-16T08:30:10;5.30;;;1.50;;
7563;SDS011;3823;53.586;10.040;2023-05-16T08:32:36;3.20;;;0.88;;
7563;SDS011;3823;53.586;10.040;2023-05-16T08:35:01;5.78;;;1.08;;
7563;SDS011;3823;53.586;10.040;2023-05-16T08:37:27;6.30;;;1.40;;
7563;SDS011;3823;53.586;10.040;2023-05-16T08:39:53;6.97;;;1.35;;
7563;SDS011;3823;53.586;10.040;2023-05-16T08:42:18;6.53;;;1.33;;
7563;SDS011;3823;53.586;10.040;2023-05-16T08:44:44;2.35;;;1.10;;
7563;SDS011;3823;53.586;10.040;2023-05-16T08:47:11;9.80;;;1.48;;
7563;SDS011;3823;53.586;10.040;2023-05-16T08:49:40;4.95;;;1.20;;
7563;SDS011;3823;53.586;10.040;2023-05-16T08:52:08;8.02;;;1.75;;
7563;SDS011;3823;53.586;10.040;2023-05-16T08:54:35;7.20;;;1.15;;
7563;SDS011;3823;53.586;10.040;2023-05-16T08:57:01;7.10;;;1.17;;
7563;SDS011;3823;53.586;10.040;2023-05-16T08:59:27;7.18;;;1.73;;
7563;SDS011;3823;53.586;10.040;2023-05-16T09:01:54;6.20;;;0.73;;
7563;SDS011;3823;53.586;10.040;2023-05-16T09:04:22;2.25;;;1.00;;
7563;SDS011;3823;53.586;10.040;2023-05-16T09:06:49;5.10;;;1.52;;
7563;SDS011;3823;53.586;10.040;2023-05-16T09:09:15;2.30;;;0.80;;
7563;SDS011;3823;53.586;10.040;2023-05-16T09:11:41;3.05;;;1.08;;
7563;SDS011;3823;53.586;10.040;2023-05-16T09:14:06;3.95;;;1.33;;
7563;SDS011;3823;53.586;10.040;2023-05-16T09:16:32;5.72;;;1.30;;
7563;SDS011;3823;53.586;10.040;2023-05-16T09:18:58;6.25;;;1.20;;
7563;SDS011;3823;53.586;10.040;2023-05-16T09:21:29;4.43;;;1.63;;
7563;SDS011;3823;53.586;10.040;2023-05-16T09:24:08;5.43;;;1.08;;
7563;SDS011;3823;53.586;10.040;2023-05-16T09:26:34;4.47;;;1.38;;
7563;SDS011;3823;53.586;10.040;2023-05-16T09:29:01;5.13;;;1.40;;
7563;SDS011;3823;53.586;10.040;2023-05-16T09:31:35;14.70;;;1.65;;
7563;SDS011;3823;53.586;10.040;2023-05-16T09:34:03;6.50;;;0.73;;
7563;SDS011;3823;53.586;10.040;2023-05-16T09:36:31;4.05;;;1.00;;
7563;SDS011;3823;53.586;10.040;2023-05-16T09:38:57;4.90;;;0.95;;
7563;SDS011;3823;53.586;10.040;2023-05-16T09:41:23;3.28;;;1.20;;
7563;SDS011;3823;53.586;10.040;2023-05-16T09:43:48;2.15;;;0.90;;
7563;SDS011;3823;53.586;10.040;2023-05-16T09:46:14;5.80;;;1.10;;
7563;SDS011;3823;53.586;10.040;2023-05-16T09:48:40;4.80;;;1.23;;
7563;SDS011;3823;53.586;10.040;2023-05-16T09:51:12;4.25;;;1.13;;
7563;SDS011;3823;53.586;10.040;2023-05-16T09:53:39;2.38;;;1.02;;
7563;SDS011;3823;53.586;10.040;2023-05-16T09:56:12;2.95;;;1.00;;
7563;SDS011;3823;53.586;10.040;2023-05-16T09:58:39;4.25;;;1.05;;
7563;SDS011;3823;53.586;10.040;2023-05-16T10:01:06;3.35;;;1.02;;
7563;SDS011;3823;53.586;10.040;2023-05-16T10:03:33;7.50;;;0.95;;
7563;SDS011;3823;53.586;10.040;2023-05-16T10:06:06;8.43;;;2.35;;
7563;SDS011;3823;53.586;10.040;2023-05-16T10:08:32;3.72;;;1.10;;
7563;SDS011;3823;53.586;10.040;2023-05-16T10:11:00;4.78;;;1.17;;
7563;SDS011;3823;53.586;10.040;2023-05-16T10:15:55;4.82;;;1.10;;
7563;SDS011;3823;53.586;10.040;2023-05-16T10:18:21;3.47;;;1.02;;
7563;SDS011;3823;53.586;10.040;2023-05-16T10:20:49;7.20;;;1.45;;
7563;SDS011;3823;53.586;10.040;2023-05-16T10:23:18;4.50;;;1.33;;
7563;SDS011;3823;53.586;10.040;2023-05-16T10:25:46;4.72;;;1.33;;
7563;SDS011;3823;53.586;10.040;2023-05-16T10:28:13;4.47;;;1.50;;
7563;SDS011;3823;53.586;10.040;2023-05-16T10:30:41;6.07;;;1.10;;
7563;SDS011;3823;53.586;10.040;2023-05-16T10:33:08;3.15;;;1.13;;
7563;SDS011;3823;53.586;10.040;2023-05-16T10:35:38;4.05;;;1.05;;
7563;SDS011;3823;53.586;10.040;2023-05-16T10:38:04;4.30;;;1.20;;
7563;SDS011;3823;53.586;10.040;2023-05-16T10:40:32;5.10;;;1.50;;
7563;SDS011;3823;53.586;10.040;2023-05-16T10:42:59;7.90;;;1.70;;
7563;SDS011;3823;53.586;10.040;2023-05-16T10:45:26;2.63;;;0.90;;
7563;SDS011;3823;53.586;10.040;2023-05-16T10:55:39;5.20;;;1.27;;
7563;SDS011;3823;53.586;10.040;2023-05-16T10:58:08;2.75;;;0.70;;
7563;SDS011;3823;53.586;10.040;2023-05-16T11:00:34;2.05;;;0.88;;
7563;SDS011;3823;53.586;10.040;2023-05-16T11:03:03;3.20;;;1.17;;
7563;SDS011;3823;53.586;10.040;2023-05-16T11:05:30;8.43;;;0.82;;
7563;SDS011;3823;53.586;10.040;2023-05-16T11:08:03;3.33;;;1.25;;
7563;SDS011;3823;53.586;10.040;2023-05-16T11:10:30;4.40;;;1.10;;
7563;SDS011;3823;53.586;10.040;2023-05-16T11:12:59;21.63;;;3.42;;
7563;SDS011;3823;53.586;10.040;2023-05-16T11:15:30;2.67;;;0.75;;
7563;SDS011;3823;53.586;10.040;2023-05-16T11:18:06;4.32;;;1.15;;
7563;SDS011;3823;53.586;10.040;2023-05-16T11:20:36;3.83;;;0.90;;
7563;SDS011;3823;53.586;10.040;2023-05-16T11:23:22;4.95;;;0.82;;
7563;SDS011;3823;53.586;10.040;2023-05-16T11:25:56;5.40;;;0.93;;
7563;SDS011;3823;53.586;10.040;2023-05-16T11:28:24;1.90;;;0.80;;
7563;SDS011;3823;53.586;10.040;2023-05-16T11:30:52;1.73;;;0.70;;
7563;SDS011;3823;53.586;10.040;2023-05-16T11:33:22;3.50;;;0.73;;
7563;SDS011;3823;53.586;10.040;2023-05-16T11:38:31;3.25;;;0.82;;
7563;SDS011;3823;53.586;10.040;2023-05-16T11:41:00;6.00;;;1.05;;
7563;SDS011;3823;53.586;10.040;2023-05-16T11:43:40;2.33;;;0.75;;
7563;SDS011;3823;53.586;10.040;2023-05-16T11:46:11;5.18;;;0.98;;
7563;SDS011;3823;53.586;10.040;2023-05-16T11:48:37;3.47;;;1.00;;
7563;SDS011;3823;53.586;10.040;2023-05-16T11:51:03;1.40;;;0.60;;
7563;SDS011;3823;53.586;10.040;2023-05-16T11:53:29;3.08;;;0.90;;
7563;SDS011;3823;53.586;10.040;2023-05-16T11:55:54;4.60;;;0.98;;
7563;SDS011;3823;53.586;10.040;2023-05-16T11:58:20;4.60;;;0.80;;
7563;SDS011;3823;53.586;10.040;2023-05-16T12:00:49;5.50;;;0.77;;
7563;SDS011;3823;53.586;10.040;2023-05-16T12:03:17;3.30;;;0.70;;
7563;SDS011;3823;53.586;10.040;2023-05-16T12:05:50;7.68;;;0.77;;
7563;SDS011;3823;53.586;10.040;2023-05-16T12:08:21;2.45;;;0.80;;
7563;SDS011;3823;53.586;10.040;2023-05-16T12:10:48;6.80;;;1.40;;
7563;SDS011;3823;53.586;10.040;2023-05-16T12:13:14;3.05;;;1.00;;
7563;SDS011;3823;53.586;10.040;2023-05-16T12:15:41;8.50;;;0.90;;
7563;SDS011;3823;53.586;10.040;2023-05-16T12:18:07;3.28;;;1.10;;
7563;SDS011;3823;53.586;10.040;2023-05-16T12:20:34;3.83;;;1.20;;
7563;SDS011;3823;53.586;10.040;2023-05-16T12:22:59;1.50;;;0.68;;
7563;SDS011;3823;53.586;10.040;2023-05-16T12:27:59;5.35;;;0.90;;
7563;SDS011;3823;53.586;10.040;2023-05-16T12:30:27;12.32;;;1.83;;
7563;SDS011;3823;53.586;10.040;2023-05-16T12:35:20;9.98;;;1.05;;
7563;SDS011;3823;53.586;10.040;2023-05-16T12:37:47;7.22;;;1.00;;
7563;SDS011;3823;53.586;10.040;2023-05-16T12:40:13;8.05;;;0.93;;
7563;SDS011;3823;53.586;10.040;2023-05-16T12:42:42;3.40;;;1.10;;
7563;SDS011;3823;53.586;10.040;2023-05-16T12:45:17;2.58;;;0.90;;
7563;SDS011;3823;53.586;10.040;2023-05-16T12:47:43;4.38;;;1.17;;
7563;SDS011;3823;53.586;10.040;2023-05-16T12:50:12;6.63;;;1.30;;
7563;SDS011;3823;53.586;10.040;2023-05-16T12:52:46;6.07;;;1.30;;
7563;SDS011;3823;53.586;10.040;2023-05-16T12:55:14;6.75;;;1.45;;
7563;SDS011;3823;53.586;10.040;2023-05-16T12:57:43;4.72;;;1.10;;
7563;SDS011;3823;53.586;10.040;2023-05-16T13:00:11;1.92;;;1.00;;
7563;SDS011;3823;53.586;10.040;2023-05-16T13:02:38;3.70;;;1.33;;
7563;SDS011;3823;53.586;10.040;2023-05-16T13:05:04;3.67;;;0.90;;
7563;SDS011;3823;53.586;10.040;2023-05-16T13:07:34;3.08;;;1.08;;
7563;SDS011;3823;53.586;10.040;2023-05-16T13:10:00;4.80;;;1.23;;
7563;SDS011;3823;53.586;10.040;2023-05-16T13:12:26;2.88;;;1.15;;
7563;SDS011;3823;53.586;10.040;2023-05-16T13:14:52;3.95;;;1.20;;
7563;SDS011;3823;53.586;10.040;2023-05-16T13:17:18;3.15;;;1.20;;
7563;SDS011;3823;53.586;10.040;2023-05-16T13:19:43;4.05;;;0.88;;
7563;SDS011;3823;53.586;10.040;2023-05-16T13:22:09;4.57;;;0.88;;
7563;SDS011;3823;53.586;10.040;2023-05-16T13:24:34;5.50;;;1.00;;
7563;SDS011;3823;53.586;10.040;2023-05-16T13:27:00;2.83;;;0.85;;
7563;SDS011;3823;53.586;10.040;2023-05-16T13:29:26;2.42;;;1.45;;
7563;SDS011;3823;53.586;10.040;2023-05-16T13:31:53;2.97;;;1.00;;
7563;SDS011;3823;53.586;10.040;2023-05-16T13:34:18;3.05;;;1.30;;
7563;SDS011;3823;53.586;10.040;2023-05-16T13:36:44;3.78;;;0.82;;
7563;SDS011;3823;53.586;10.040;2023-05-16T13:39:11;2.58;;;1.25;;
7563;SDS011;3823;53.586;10.040;2023-05-16T13:41:37;2.78;;;0.98;;
7563;SDS011;3823;53.586;10.040;2023-05-16T13:44:04;4.90;;;0.77;;
7563;SDS011;3823;53.586;10.040;2023-05-16T13:46:30;3.40;;;0.85;;
7563;SDS011;3823;53.586;10.040;2023-05-16T13:48:56;2.95;;;0.77;;
7563;SDS011;3823;53.586;10.040;2023-05-16T13:51:21;2.28;;;0.60;;
7563;SDS011;3823;53.586;10.040;2023-05-16T13:53:47;4.82;;;0.77;;
7563;SDS011;3823;53.586;10.040;2023-05-16T13:56:12;2.53;;;0.80;;
7563;SDS011;3823;53.586;10.040;2023-05-16T13:58:38;4.40;;;0.70;;
7563;SDS011;3823;53.586;10.040;2023-05-16T14:01:04;4.50;;;0.70;;
7563;SDS011;3823;53.586;10.040;2023-05-16T14:03:30;1.50;;;0.82;;
7563;SDS011;3823;53.586;10.040;2023-05-16T14:05:56;1.30;;;0.50;;
7563;SDS011;3823;53.586;10.040;2023-05-16T14:08:21;1.67;;;0.50;;
7563;SDS011;3823;53.586;10.040;2023-05-16T14:10:47;3.40;;;0.70;;
7563;SDS011;3823;53.586;10.040;2023-05-16T14:13:12;2.95;;;0.70;;
7563;SDS011;3823;53.586;10.040;2023-05-16T14:15:38;4.00;;;0.80;;
7563;SDS011;3823;53.586;10.040;2023-05-16T14:18:04;5.70;;;1.00;;
7563;SDS011;3823;53.586;10.040;2023-05-16T14:20:30;4.07;;;0.70;;
7563;SDS011;3823;53.586;10.040;2023-05-16T14:22:55;8.38;;;0.85;;
7563;SDS011;3823;53.586;10.040;2023-05-16T14:25:21;4.05;;;0.85;;
7563;SDS011;3823;53.586;10.040;2023-05-16T14:27:47;2.65;;;0.90;;
7563;SDS011;3823;53.586;10.040;2023-05-16T14:30:14;3.28;;;0.95;;
7563;SDS011;3823;53.586;10.040;2023-05-16T14:32:40;2.63;;;0.75;;
7563;SDS011;3823;53.586;10.040;2023-05-16T14:35:06;3.47;;;1.23;;
7563;SDS011;3823;53.586;10.040;2023-05-16T14:37:33;3.17;;;0.55;;
7563;SDS011;3823;53.586;10.040;2023-05-16T14:39:59;1.48;;;0.70;;
7563;SDS011;3823;53.586;10.040;2023-05-16T14:42:25;1.60;;;0.70;;
7563;SDS011;3823;53.586;10.040;2023-05-16T14:44:50;3.35;;;1.00;;
7563;SDS011;3823;53.586;10.040;2023-05-16T14:47:16;2.30;;;1.17;;
7563;SDS011;3823;53.586;10.040;2023-05-16T14:49:42;1.55;;;0.55;;
7563;SDS011;3823;53.586;10.040;2023-05-16T14:52:08;3.15;;;1.13;;
7563;SDS011;3823;53.586;10.040;2023-05-16T14:54:34;2.55;;;0.80;;
7563;SDS011;3823;53.586;10.040;2023-05-16T14:57:00;10.43;;;1.67;;
7563;SDS011;3823;53.586;10.040;2023-05-16T14:59:27;2.13;;;0.63;;
7563;SDS011;3823;53.586;10.040;2023-05-16T15:01:53;2.95;;;0.70;;
7563;SDS011;3823;53.586;10.040;2023-05-16T15:04:18;2.20;;;0.60;;
7563;SDS011;3823;53.586;10.040;2023-05-16T15:06:44;1.63;;;1.35;;
7563;SDS011;3823;53.586;10.040;2023-05-16T15:09:10;3.05;;;0.68;;
7563;SDS011;3823;53.586;10.040;2023-05-16T15:11:35;4.25;;;1.10;;
7563;SDS011;3823;53.586;10.040;2023-05-16T15:14:01;1.60;;;0.70;;
7563;SDS011;3823;53.586;10.040;2023-05-16T15:16:26;6.65;;;1.25;;
7563;SDS011;3823;53.586;10.040;2023-05-16T15:18:54;2.58;;;0.73;;
7563;SDS011;3823;53.586;10.040;2023-05-16T15:21:19;4.50;;;1.00;;
7563;SDS011;3823;53.586;10.040;2023-05-16T15:23:45;4.00;;;1.48;;
7563;SDS011;3823;53.586;10.040;2023-05-16T15:26:10;4.45;;;1.33;;
7563;SDS011;3823;53.586;10.040;2023-05-16T15:28:37;3.55;;;1.50;;
7563;SDS011;3823;53.586;10.040;2023-05-16T15:31:03;4.28;;;1.40;;
7563;SDS011;3823;53.586;10.040;2023-05-16T15:33:29;4.57;;;1.70;;
7563;SDS011;3823;53.586;10.040;2023-05-16T15:35:55;3.65;;;1.38;;
7563;SDS011;3823;53.586;10.040;2023-05-16T15:38:21;4.70;;;1.13;;
7563;SDS011;3823;53.586;10.040;2023-05-16T15:40:47;3.95;;;1.00;;
7563;SDS011;3823;53.586;10.040;2023-05-16T15:43:13;4.22;;;2.30;;
7563;SDS011;3823;53.586;10.040;2023-05-16T15:45:38;4.43;;;1.60;;
7563;SDS011;3823;53.586;10.040;2023-05-16T15:48:04;11.40;;;1.67;;
7563;SDS011;3823;53.586;10.040;2023-05-16T15:50:30;3.15;;;1.55;;
7563;SDS011;3823;53.586;10.040;2023-05-16T15:52:55;2.72;;;1.30;;
7563;SDS011;3823;53.586;10.040;2023-05-16T15:55:22;5.45;;;1.50;;
7563;SDS011;3823;53.586;10.040;2023-05-16T15:57:47;8.13;;;1.60;;
7563;SDS011;3823;53.586;10.040;2023-05-16T16:00:13;5.60;;;1.67;;
7563;SDS011;3823;53.586;10.040;2023-05-16T16:02:39;3.53;;;1.63;;
7563;SDS011;3823;53.586;10.040;2023-05-16T16:05:07;4.13;;;1.60;;
7563;SDS011;3823;53.586;10.040;2023-05-16T16:07:32;7.65;;;1.55;;
7563;SDS011;3823;53.586;10.040;2023-05-16T16:09:58;5.68;;;1.48;;
7563;SDS011;3823;53.586;10.040;2023-05-16T16:12:23;5.72;;;1.77;;
7563;SDS011;3823;53.586;10.040;2023-05-16T16:14:49;4.78;;;1.55;;
7563;SDS011;3823;53.586;10.040;2023-05-16T16:17:15;4.30;;;1.85;;
7563;SDS011;3823;53.586;10.040;2023-05-16T16:19:41;5.28;;;1.90;;
7563;SDS011;3823;53.586;10.040;2023-05-16T16:22:07;3.13;;;2.28;;
7563;SDS011;3823;53.586;10.040;2023-05-16T16:24:33;5.80;;;1.70;;
7563;SDS011;3823;53.586;10.040;2023-05-16T16:26:58;5.20;;;1.75;;
7563;SDS011;3823;53.586;10.040;2023-05-16T16:29:24;5.95;;;1.67;;
7563;SDS011;3823;53.586;10.040;2023-05-16T16:31:50;4.57;;;1.48;;
7563;SDS011;3823;53.586;10.040;2023-05-16T16:34:17;8.88;;;2.70;;
7563;SDS011;3823;53.586;10.040;2023-05-16T16:36:42;4.97;;;1.73;;
7563;SDS011;3823;53.586;10.040;2023-05-16T16:39:08;5.53;;;1.20;;
7563;SDS011;3823;53.586;10.040;2023-05-16T16:41:34;1.58;;;1.05;;
7563;SDS011;3823;53.586;10.040;2023-05-16T16:44:00;3.17;;;1.10;;
7563;SDS011;3823;53.586;10.040;2023-05-16T16:46:25;2.55;;;1.17;;
7563;SDS011;3823;53.586;10.040;2023-05-16T16:48:51;2.20;;;1.00;;
7563;SDS011;3823;53.586;10.040;2023-05-16T16:51:18;6.82;;;1.20;;
7563;SDS011;3823;53.586;10.040;2023-05-16T16:53:44;3.70;;;1.45;;
7563;SDS011;3823;53.586;10.040;2023-05-16T16:56:09;7.18;;;1.27;;
7563;SDS011;3823;53.586;10.040;2023-05-16T16:58:35;2.83;;;1.70;;
7563;SDS011;3823;53.586;10.040;2023-05-16T17:01:01;3.00;;;1.50;;
7563;SDS011;3823;53.586;10.040;2023-05-16T17:03:27;3.65;;;1.33;;
7563;SDS011;3823;53.586;10.040;2023-05-16T17:05:53;2.70;;;1.38;;
7563;SDS011;3823;53.586;10.040;2023-05-16T17:08:19;7.20;;;2.83;;
7563;SDS011;3823;53.586;10.040;2023-05-16T17:10:44;3.15;;;1.60;;
7563;SDS011;3823;53.586;10.040;2023-05-16T17:13:10;4.43;;;2.15;;
7563;SDS011;3823;53.586;10.040;2023-05-16T17:15:38;14.50;;;2.80;;
7563;SDS011;3823;53.586;10.040;2023-05-16T17:18:04;10.43;;;2.03;;
7563;SDS011;3823;53.586;10.040;2023-05-16T17:20:33;13.07;;;2.05;;
7563;SDS011;3823;53.586;10.040;2023-05-16T17:22:59;7.60;;;2.42;;
7563;SDS011;3823;53.586;10.040;2023-05-16T17:25:25;10.80;;;2.33;;
7563;SDS011;3823;53.586;10.040;2023-05-16T17:27:52;3.97;;;2.17;;
7563;SDS011;3823;53.586;10.040;2023-05-16T17:30:17;11.02;;;2.72;;
7563;SDS011;3823;53.586;10.040;2023-05-16T17:32:43;3.10;;;2.00;;
7563;SDS011;3823;53.586;10.040;2023-05-16T17:35:08;13.02;;;4.85;;
7563;SDS011;3823;53.586;10.040;2023-05-16T17:37:34;7.10;;;3.28;;
7563;SDS011;3823;53.586;10.040;2023-05-16T17:40:00;9.07;;;3.20;;
7563;SDS011;3823;53.586;10.040;2023-05-16T17:42:25;8.90;;;3.65;;
7563;SDS011;3823;53.586;10.040;2023-05-16T17:44:51;26.38;;;5.65;;
7563;SDS011;3823;53.586;10.040;2023-05-16T17:47:17;8.80;;;3.35;;
7563;SDS011;3823;53.586;10.040;2023-05-16T17:49:43;11.85;;;3.58;;
7563;SDS011;3823;53.586;10.040;2023-05-16T17:52:10;8.90;;;3.30;;
7563;SDS011;3823;53.586;10.040;2023-05-16T17:54:36;8.18;;;3.50;;
7563;SDS011;3823;53.586;10.040;2023-05-16T17:57:02;12.10;;;3.40;;
7563;SDS011;3823;53.586;10.040;2023-05-16T17:59:28;9.48;;;3.67;;
7563;SDS011;3823;53.586;10.040;2023-05-16T18:01:54;7.63;;;3.30;;
7563;SDS011;3823;53.586;10.040;2023-05-16T18:04:21;9.18;;;4.13;;
7563;SDS011;3823;53.586;10.040;2023-05-16T18:06:47;14.73;;;4.20;;
7563;SDS011;3823;53.586;10.040;2023-05-16T18:09:16;7.25;;;3.47;;
7563;SDS011;3823;53.586;10.040;2023-05-16T18:11:42;9.35;;;4.45;;
7563;SDS011;3823;53.586;10.040;2023-05-16T18:14:08;10.77;;;3.58;;
7563;SDS011;3823;53.586;10.040;2023-05-16T18:16:34;8.93;;;3.80;;
7563;SDS011;3823;53.586;10.040;2023-05-16T18:19:00;11.60;;;5.03;;
7563;SDS011;3823;53.586;10.040;2023-05-16T18:21:26;18.92;;;4.47;;
7563;SDS011;3823;53.586;10.040;2023-05-16T18:23:51;10.27;;;4.30;;
7563;SDS011;3823;53.586;10.040;2023-05-16T18:26:18;12.50;;;4.60;;
7563;SDS011;3823;53.586;10.040;2023-05-16T18:28:44;11.50;;;4.15;;
7563;SDS011;3823;53.586;10.040;2023-05-16T18:31:09;8.23;;;3.72;;
7563;SDS011;3823;53.586;10.040;2023-05-16T18:33:35;8.30;;;4.05;;
7563;SDS011;3823;53.586;10.040;2023-05-16T18:36:01;10.45;;;4.65;;
7563;SDS011;3823;53.586;10.040;2023-05-16T18:38:28;14.82;;;4.07;;
7563;SDS011;3823;53.586;10.040;2023-05-16T18:40:53;12.35;;;3.88;;
7563;SDS011;3823;53.586;10.040;2023-05-16T18:43:19;15.95;;;4.32;;
7563;SDS011;3823;53.586;10.040;2023-05-16T18:45:45;21.25;;;5.10;;
7563;SDS011;3823;53.586;10.040;2023-05-16T18:48:10;6.63;;;3.13;;
7563;SDS011;3823;53.586;10.040;2023-05-16T18:50:36;17.30;;;4.13;;
7563;SDS011;3823;53.586;10.040;2023-05-16T18:53:02;16.85;;;4.57;;
7563;SDS011;3823;53.586;10.040;2023-05-16T18:55:27;8.13;;;4.45;;
7563;SDS011;3823;53.586;10.040;2023-05-16T18:57:53;24.08;;;5.95;;
7563;SDS011;3823;53.586;10.040;2023-05-16T19:00:19;10.52;;;4.35;;
7563;SDS011;3823;53.586;10.040;2023-05-16T19:02:45;16.30;;;4.97;;
7563;SDS011;3823;53.586;10.040;2023-05-16T19:05:11;12.07;;;4.07;;
7563;SDS011;3823;53.586;10.040;2023-05-16T19:07:38;16.27;;;5.30;;
7563;SDS011;3823;53.586;10.040;2023-05-16T19:10:04;19.58;;;5.00;;
7563;SDS011;3823;53.586;10.040;2023-05-16T19:12:30;23.55;;;5.75;;
7563;SDS011;3823;53.586;10.040;2023-05-16T19:14:56;18.40;;;5.40;;
7563;SDS011;3823;53.586;10.040;2023-05-16T19:17:22;13.82;;;5.43;;